createdAt,value
2017-06-27T00:00:07.596Z,56.00
2017-06-27T00:02:42.123Z,54.70
2017-06-27T00:05:15.901Z,54.80
2017-06-27T00:07:49.672Z,54.90
2017-06-27T00:10:23.480Z,54.70
2017-06-27T00:12:57.186Z,55.10
2017-06-27T00:15:30.989Z,55.20
2017-06-27T00:18:04.588Z,55.10
2017-06-27T00:20:38.573Z,54.70
2017-06-27T00:23:13.245Z,55.10
2017-06-27T00:25:46.926Z,55.80
2017-06-27T00:28:20.528Z,55.60
2017-06-27T00:30:54.356Z,55.90
2017-06-27T00:33:28.008Z,55.60
2017-06-27T00:36:01.894Z,55.90
2017-06-27T00:38:37.257Z,55.40
2017-06-27T00:41:12.016Z,55.40
2017-06-27T00:43:45.920Z,55.40
2017-06-27T00:46:19.669Z,55.30
2017-06-27T00:48:54.157Z,55.50
2017-06-27T00:51:28.001Z,56.10
2017-06-27T00:54:02.449Z,55.70
2017-06-27T00:56:36.541Z,55.70
2017-06-27T00:59:10.288Z,55.80
2017-06-27T01:01:43.940Z,56.30
2017-06-27T01:04:17.599Z,56.20
2017-06-27T01:06:52.128Z,57.00
2017-06-27T01:09:26.080Z,56.30
2017-06-27T01:12:00.564Z,56.60
2017-06-27T01:14:35.253Z,56.20
2017-06-27T01:17:10.113Z,56.60
2017-06-27T01:19:44.812Z,56.60
2017-06-27T01:22:19.570Z,57.20
2017-06-27T01:24:53.677Z,56.70
2017-06-27T01:27:27.484Z,56.70
2017-06-27T01:30:01.880Z,57.40
2017-06-27T01:32:35.820Z,57.40
2017-06-27T01:35:09.513Z,57.10
2017-06-27T01:37:44.040Z,57.70
2017-06-27T01:40:17.946Z,56.90
2017-06-27T01:42:51.848Z,57.10
2017-06-27T01:45:26.278Z,58.30
2017-06-27T01:48:00.794Z,57.40
2017-06-27T01:50:34.684Z,57.20
2017-06-27T01:53:08.300Z,57.50
2017-06-27T01:55:41.925Z,57.30
2017-06-27T01:58:15.700Z,57.50
2017-06-27T02:00:51.017Z,58.30
2017-06-27T02:03:25.135Z,57.60
2017-06-27T02:06:00.469Z,58.00
2017-06-27T02:08:34.362Z,57.90
2017-06-27T02:11:07.961Z,59.10
2017-06-27T02:13:41.825Z,58.00
2017-06-27T02:16:16.408Z,58.60
2017-06-27T02:18:50.421Z,58.30
2017-06-27T02:21:24.145Z,58.80
2017-06-27T02:23:58.782Z,58.60
2017-06-27T02:26:32.604Z,58.70
2017-06-27T02:29:07.237Z,58.70
2017-06-27T02:31:41.146Z,58.70
2017-06-27T02:34:15.761Z,58.40
2017-06-27T02:36:50.460Z,58.60
2017-06-27T02:39:24.454Z,58.50
2017-06-27T02:41:58.100Z,58.50
2017-06-27T02:44:31.924Z,58.20
2017-06-27T02:47:05.533Z,58.00
2017-06-27T02:49:40.033Z,58.40
2017-06-27T02:52:13.965Z,58.40
2017-06-27T02:54:47.753Z,59.30
2017-06-27T02:57:21.549Z,59.00
2017-06-27T02:59:56.173Z,58.90
2017-06-27T03:02:30.152Z,59.20
2017-06-27T03:05:03.897Z,60.30
2017-06-27T03:07:38.376Z,59.30
2017-06-27T03:10:13.126Z,61.20
2017-06-27T03:12:46.940Z,60.30
2017-06-27T03:15:21.224Z,59.40
2017-06-27T03:17:54.796Z,59.80
2017-06-27T03:20:28.565Z,60.00
2017-06-27T03:23:02.382Z,61.00
2017-06-27T03:25:37.022Z,62.10
2017-06-27T03:28:10.861Z,62.10
2017-06-27T03:30:44.590Z,61.20
2017-06-27T03:33:18.318Z,60.80
2017-06-27T03:35:52.937Z,61.00
2017-06-27T03:38:26.848Z,60.70
2017-06-27T03:41:01.373Z,61.00
2017-06-27T03:43:35.193Z,60.90
2017-06-27T03:46:09.720Z,60.20
2017-06-27T03:48:44.387Z,60.90
2017-06-27T03:51:18.460Z,59.90
2017-06-27T03:53:52.173Z,60.40
2017-06-27T03:56:25.826Z,60.90
2017-06-27T03:59:00.325Z,60.30
2017-06-27T04:01:34.048Z,61.00
2017-06-27T04:04:07.609Z,59.60
2017-06-27T04:06:42.219Z,60.20
2017-06-27T04:09:15.889Z,60.20
2017-06-27T04:11:49.661Z,60.20
2017-06-27T04:14:23.398Z,60.30
2017-06-27T04:16:58.214Z,59.60
2017-06-27T04:19:31.977Z,59.60
2017-06-27T04:22:06.358Z,60.00
2017-06-27T04:24:40.214Z,59.90
2017-06-27T04:27:14.780Z,60.40
2017-06-27T04:29:49.357Z,60.00
2017-06-27T04:32:23.329Z,59.30
2017-06-27T04:34:57.796Z,58.80
2017-06-27T04:37:31.949Z,59.20
2017-06-27T04:40:05.649Z,58.90
2017-06-27T04:42:39.604Z,60.80
2017-06-27T04:45:14.133Z,65.70
2017-06-27T04:47:48.070Z,59.10
2017-06-27T04:50:22.638Z,59.50
2017-06-27T04:52:56.293Z,59.60
2017-06-27T04:55:30.020Z,59.50
2017-06-27T04:58:04.556Z,59.00
2017-06-27T05:00:38.481Z,58.90
2017-06-27T05:03:13.065Z,59.90
2017-06-27T05:05:47.065Z,59.20
2017-06-27T05:08:21.710Z,60.50
2017-06-27T05:10:55.634Z,59.70
2017-06-27T05:13:29.427Z,59.30
2017-06-27T05:16:03.904Z,59.00
2017-06-27T05:18:38.022Z,58.90
2017-06-27T05:21:11.713Z,59.60
2017-06-27T05:23:45.438Z,60.10
2017-06-27T05:26:19.853Z,59.20
2017-06-27T05:28:53.845Z,59.10
2017-06-27T05:31:28.385Z,62.70
2017-06-27T05:34:02.344Z,62.70
2017-06-27T05:36:36.950Z,59.70
2017-06-27T05:39:10.712Z,60.40
2017-06-27T05:41:44.332Z,59.90
2017-06-27T05:44:18.225Z,58.10
2017-06-27T05:46:52.749Z,59.20
2017-06-27T05:49:28.246Z,59.00
2017-06-27T05:52:02.240Z,59.00
2017-06-27T05:54:36.676Z,58.10
2017-06-27T05:57:11.265Z,58.60
2017-06-27T05:59:45.466Z,58.50
2017-06-27T06:02:19.985Z,57.80
2017-06-27T06:04:53.637Z,57.40
2017-06-27T06:07:27.369Z,58.30
2017-06-27T06:10:01.882Z,58.00
2017-06-27T06:12:35.874Z,57.90
2017-06-27T06:15:09.597Z,56.80
2017-06-27T06:17:43.386Z,57.00
2017-06-27T06:20:17.173Z,57.40
2017-06-27T06:22:51.676Z,57.20
2017-06-27T06:25:25.814Z,57.20
2017-06-27T06:28:00.205Z,56.30
2017-06-27T06:30:34.353Z,56.30
2017-06-27T06:33:08.869Z,55.80
2017-06-27T06:35:42.718Z,56.40
2017-06-27T06:38:17.173Z,56.50
2017-06-27T06:40:51.133Z,56.50
2017-06-27T06:43:25.596Z,56.20
2017-06-27T06:45:59.652Z,56.20
2017-06-27T06:48:34.033Z,55.70
2017-06-27T06:51:08.914Z,56.00
2017-06-27T06:53:42.593Z,55.50
2017-06-27T06:56:16.493Z,55.40
2017-06-27T06:58:51.037Z,56.80
2017-06-27T07:01:25.455Z,55.40
2017-06-27T07:03:59.365Z,55.40
2017-06-27T07:06:35.901Z,56.00
2017-06-27T07:09:09.597Z,55.90
2017-06-27T07:11:44.282Z,56.10
2017-06-27T07:14:17.948Z,56.10
2017-06-27T07:16:51.712Z,57.00
2017-06-27T07:19:26.255Z,57.10
2017-06-27T07:22:00.325Z,57.10
2017-06-27T07:24:33.949Z,57.20
2017-06-27T07:27:08.621Z,57.30
2017-06-27T07:29:43.111Z,56.30
2017-06-27T07:32:17.892Z,55.40
2017-06-27T07:34:51.828Z,55.20
2017-06-27T07:37:26.608Z,55.70
2017-06-27T07:40:01.005Z,55.20
2017-06-27T07:42:34.944Z,55.30
2017-06-27T07:45:09.333Z,55.80
2017-06-27T07:47:43.538Z,55.80
2017-06-27T07:50:17.133Z,54.70
2017-06-27T07:52:51.812Z,54.10
2017-06-27T07:55:26.498Z,55.30
2017-06-27T07:58:00.553Z,55.30
2017-06-27T08:00:35.033Z,56.00
2017-06-27T08:03:09.142Z,55.30
2017-06-27T08:05:43.654Z,54.90
2017-06-27T08:08:17.545Z,54.50
2017-06-27T08:10:51.328Z,55.40
2017-06-27T08:13:26.235Z,53.00
2017-06-27T08:16:00.035Z,53.00
2017-06-27T08:18:34.063Z,52.80
2017-06-27T08:21:07.667Z,52.80
2017-06-27T08:23:41.424Z,52.40
2017-06-27T08:26:15.077Z,52.00
2017-06-27T08:28:48.796Z,51.60
2017-06-27T08:31:23.265Z,51.60
2017-06-27T08:33:57.252Z,51.60
2017-06-27T08:36:31.702Z,51.40
2017-06-27T08:39:05.690Z,51.50
2017-06-27T08:41:39.484Z,51.60
2017-06-27T08:44:13.325Z,51.90
2017-06-27T08:46:47.121Z,51.60
2017-06-27T08:49:20.797Z,51.70
2017-06-27T08:51:54.409Z,51.70
2017-06-27T08:54:28.265Z,51.80
2017-06-27T08:57:02.858Z,53.00
2017-06-27T08:59:36.861Z,52.00
2017-06-27T09:02:11.350Z,52.20
2017-06-27T09:04:45.897Z,51.90
2017-06-27T09:07:20.442Z,51.30
2017-06-27T09:09:55.420Z,51.50
2017-06-27T09:12:30.100Z,52.10
2017-06-27T09:15:03.993Z,52.00
2017-06-27T09:17:38.433Z,52.10
2017-06-27T09:20:12.422Z,52.10
2017-06-27T09:22:46.960Z,51.40
2017-06-27T09:25:21.041Z,51.40
2017-06-27T09:27:55.396Z,52.10
2017-06-27T09:30:30.433Z,52.00
2017-06-27T09:33:04.456Z,51.90
2017-06-27T09:35:38.925Z,53.20
2017-06-27T09:38:13.014Z,53.10
2017-06-27T09:40:46.925Z,52.50
2017-06-27T09:43:20.549Z,52.10
2017-06-27T09:45:55.049Z,52.50
2017-06-27T09:48:29.077Z,52.50
2017-06-27T09:51:02.881Z,52.80
2017-06-27T09:53:36.561Z,52.40
2017-06-27T09:56:11.086Z,52.20
2017-06-27T09:58:44.995Z,51.80
2017-06-27T10:01:19.617Z,51.80
2017-06-27T10:03:53.548Z,51.90
2017-06-27T10:06:27.658Z,50.70
2017-06-27T10:09:01.962Z,50.40
2017-06-27T10:11:36.378Z,50.40
2017-06-27T10:14:10.291Z,50.30
2017-06-27T10:16:44.893Z,50.60
2017-06-27T10:19:18.697Z,50.60
2017-06-27T10:21:53.241Z,50.60
2017-06-27T10:24:27.149Z,50.60
2017-06-27T10:27:01.801Z,50.00
2017-06-27T10:29:35.885Z,50.00
2017-06-27T10:32:09.666Z,50.10
2017-06-27T10:34:43.299Z,50.30
2017-06-27T10:37:18.074Z,50.20
2017-06-27T10:39:51.825Z,50.90
2017-06-27T10:42:25.541Z,50.80
2017-06-27T10:44:59.253Z,50.20
2017-06-27T10:47:33.051Z,50.90
2017-06-27T10:50:07.536Z,48.70
2017-06-27T10:52:42.310Z,49.70
2017-06-27T10:55:16.311Z,49.80
2017-06-27T10:57:50.148Z,50.80
2017-06-27T11:00:23.853Z,50.20
2017-06-27T11:02:57.649Z,49.50
2017-06-27T11:05:31.357Z,49.90
2017-06-27T11:08:06.213Z,49.80
2017-06-27T11:10:39.965Z,50.20
2017-06-27T11:13:14.690Z,49.50
2017-06-27T11:15:49.262Z,49.10
2017-06-27T11:18:24.237Z,48.30
2017-06-27T11:20:58.104Z,48.30
2017-06-27T11:23:32.868Z,48.30
2017-06-27T11:26:06.594Z,48.40
2017-06-27T11:28:41.210Z,47.30
2017-06-27T11:31:14.989Z,47.40
2017-06-27T11:33:48.921Z,47.60
2017-06-27T11:36:22.521Z,47.70
2017-06-27T11:38:56.457Z,48.80
2017-06-27T11:41:30.981Z,47.90
2017-06-27T11:44:05.469Z,48.50
2017-06-27T11:46:39.537Z,48.10
2017-06-27T11:49:13.259Z,49.70
2017-06-27T11:51:47.686Z,48.60
2017-06-27T11:54:21.846Z,48.50
2017-06-27T11:56:55.525Z,48.10
2017-06-27T11:59:29.428Z,48.10
2017-06-27T12:02:10.081Z,48.20
2017-06-27T12:04:43.984Z,48.20
2017-06-27T12:07:32.436Z,48.00
2017-06-27T12:10:07.029Z,47.60
2017-06-27T12:12:40.797Z,47.50
2017-06-27T12:15:15.429Z,48.30
2017-06-27T12:17:49.277Z,48.20
2017-06-27T12:20:23.081Z,47.80
2017-06-27T12:22:57.677Z,47.70
2017-06-27T12:25:31.668Z,47.80
2017-06-27T12:28:06.005Z,47.00
2017-06-27T12:30:39.953Z,47.00
2017-06-27T12:33:14.579Z,48.50
2017-06-27T12:35:49.018Z,47.60
2017-06-27T12:38:22.833Z,47.50
2017-06-27T12:40:56.609Z,47.30
2017-06-27T12:43:30.242Z,47.50
2017-06-27T12:46:03.989Z,47.70
2017-06-27T12:48:37.645Z,47.30
2017-06-27T12:51:11.392Z,48.00
2017-06-27T12:53:45.924Z,48.60
2017-06-27T12:56:20.501Z,47.90
2017-06-27T12:58:54.385Z,47.80
2017-06-27T13:01:28.065Z,47.00
2017-06-27T13:04:01.849Z,47.00
2017-06-27T13:06:36.457Z,46.60
2017-06-27T13:09:10.989Z,47.30
2017-06-27T13:11:45.113Z,47.00
2017-06-27T13:14:18.857Z,46.30
2017-06-27T13:16:53.569Z,48.10
2017-06-27T13:19:27.584Z,48.10
2017-06-27T13:22:01.290Z,48.90
2017-06-27T13:24:35.688Z,47.60
2017-06-27T13:27:09.572Z,47.70
2017-06-27T13:29:43.153Z,47.50
2017-06-27T13:32:16.921Z,46.60
2017-06-27T13:34:50.666Z,47.10
2017-06-27T13:37:26.472Z,48.00
2017-06-27T13:40:00.195Z,48.00
2017-06-27T13:42:34.896Z,47.30
2017-06-27T13:45:08.658Z,47.20
2017-06-27T13:47:42.402Z,45.20
2017-06-27T13:50:16.030Z,45.50
2017-06-27T13:52:49.913Z,44.20
2017-06-27T13:55:23.640Z,43.20
2017-06-27T13:57:58.268Z,42.70
2017-06-27T14:00:32.173Z,42.90
2017-06-27T14:03:05.920Z,42.70
2017-06-27T14:05:39.582Z,41.80
2017-06-27T14:08:15.293Z,42.80
2017-06-27T14:10:49.010Z,42.80
2017-06-27T14:13:22.743Z,42.70
2017-06-27T14:15:56.447Z,42.50
2017-06-27T14:18:30.237Z,43.60
2017-06-27T14:21:03.957Z,42.80
2017-06-27T14:23:37.814Z,42.60
2017-06-27T14:26:11.453Z,43.10
2017-06-27T14:28:45.417Z,42.70
2017-06-27T14:31:19.032Z,42.60
2017-06-27T14:33:53.013Z,42.80
2017-06-27T14:36:26.597Z,42.40
2017-06-27T14:39:00.381Z,42.10
2017-06-27T14:41:34.054Z,43.70
2017-06-27T14:44:07.905Z,44.40
2017-06-27T14:46:41.662Z,44.00
2017-06-27T14:49:15.598Z,44.80
2017-06-27T14:51:50.137Z,44.70
2017-06-27T14:54:24.093Z,44.60
2017-06-27T14:56:57.753Z,44.20
2017-06-27T14:59:31.609Z,43.40
2017-06-27T15:02:05.332Z,42.30
2017-06-27T15:04:39.053Z,42.00
2017-06-27T15:07:13.497Z,42.70
2017-06-27T15:09:48.108Z,42.60
2017-06-27T15:12:21.897Z,42.50
2017-06-27T15:14:55.785Z,42.40
2017-06-27T15:17:31.217Z,43.10
2017-06-27T15:20:05.234Z,43.10
2017-06-27T15:22:39.746Z,43.40
2017-06-27T15:25:13.842Z,43.10
2017-06-27T15:27:49.201Z,44.40
2017-06-27T15:30:23.377Z,44.40
2017-06-27T15:32:58.574Z,44.90
2017-06-27T15:35:33.204Z,46.40
2017-06-27T15:38:07.129Z,45.80
2017-06-27T15:40:40.990Z,45.40
2017-06-27T15:43:14.589Z,45.70
2017-06-27T15:45:48.570Z,46.40
2017-06-27T15:48:22.297Z,46.40
2017-06-27T15:50:56.097Z,46.30
2017-06-27T15:53:30.641Z,46.90
2017-06-27T15:56:04.861Z,46.90
2017-06-27T15:58:39.480Z,46.80
2017-06-27T16:01:13.231Z,46.60
2017-06-27T16:03:47.700Z,47.10
2017-06-27T16:06:21.710Z,46.80
2017-06-27T16:08:55.301Z,47.10
2017-06-27T16:11:29.196Z,46.80
2017-06-27T16:14:02.849Z,46.50
2017-06-27T16:16:37.297Z,47.60
2017-06-27T16:19:11.978Z,47.00
2017-06-27T16:21:46.072Z,46.80
2017-06-27T16:24:20.504Z,46.90
2017-06-27T16:26:54.631Z,47.20
2017-06-27T16:29:29.200Z,47.40
2017-06-27T16:32:02.909Z,47.40
2017-06-27T16:34:38.292Z,47.60
2017-06-27T16:37:13.310Z,47.20
2017-06-27T16:39:46.914Z,48.20
2017-06-27T16:42:20.742Z,47.90
2017-06-27T16:44:55.156Z,48.50
2017-06-27T16:47:29.092Z,48.40
2017-06-27T16:50:03.497Z,48.70
2017-06-27T16:52:37.488Z,48.70
2017-06-27T16:55:11.926Z,49.30
2017-06-27T16:57:46.038Z,49.30
2017-06-27T17:00:20.590Z,48.90
2017-06-27T17:02:54.493Z,49.20
2017-06-27T17:05:29.089Z,50.00
2017-06-27T17:08:03.268Z,49.90
2017-06-27T17:10:37.624Z,51.40
2017-06-27T17:13:11.704Z,50.50
2017-06-27T17:15:46.058Z,51.10
2017-06-27T17:18:19.956Z,50.50
2017-06-27T17:20:54.512Z,49.70
2017-06-27T17:23:29.974Z,49.70
2017-06-27T17:26:04.669Z,49.50
2017-06-27T17:28:39.535Z,50.30
2017-06-27T17:31:13.382Z,49.50
2017-06-27T17:33:47.992Z,50.00
2017-06-27T17:36:21.689Z,50.30
2017-06-27T17:38:56.205Z,50.90
2017-06-27T17:41:30.193Z,50.80
2017-06-27T17:44:03.924Z,50.00
2017-06-27T17:46:38.504Z,50.00
2017-06-27T17:49:12.305Z,49.80
2017-06-27T17:51:45.941Z,49.30
2017-06-27T17:54:20.564Z,50.50
2017-06-27T17:56:54.389Z,50.60
2017-06-27T17:59:28.105Z,50.90
2017-06-27T18:02:03.372Z,49.90
2017-06-27T18:04:37.257Z,50.40
2017-06-27T18:07:10.857Z,50.50
2017-06-27T18:09:44.633Z,50.70
2017-06-27T18:12:19.114Z,51.30
2017-06-27T18:14:53.229Z,51.20
2017-06-27T18:17:27.722Z,51.70
2017-06-27T18:20:01.578Z,51.80
2017-06-27T18:22:36.202Z,51.70
2017-06-27T18:25:10.913Z,51.50
2017-06-27T18:27:45.437Z,52.40
2017-06-27T18:30:19.981Z,52.50
2017-06-27T18:32:53.893Z,52.10
2017-06-27T18:35:28.512Z,52.40
2017-06-27T18:38:02.325Z,52.00
2017-06-27T18:40:36.228Z,53.40
2017-06-27T18:43:09.853Z,53.00
2017-06-27T18:45:43.517Z,53.00
2017-06-27T18:48:17.937Z,52.80
2017-06-27T18:50:51.965Z,52.80
2017-06-27T18:53:26.495Z,54.10
2017-06-27T18:56:01.125Z,54.00
2017-06-27T18:58:35.029Z,54.00
2017-06-27T19:01:09.010Z,54.10
2017-06-27T19:03:43.529Z,54.10
2017-06-27T19:06:18.250Z,54.70
2017-06-27T19:08:51.985Z,54.10
2017-06-27T19:11:25.840Z,53.80
2017-06-27T19:14:00.484Z,53.10
2017-06-27T19:16:34.704Z,53.00
2017-06-27T19:19:10.145Z,54.10
2017-06-27T19:21:44.141Z,53.30
2017-06-27T19:24:17.785Z,53.50
2017-06-27T19:26:51.541Z,54.10
2017-06-27T19:29:25.314Z,54.10
2017-06-27T19:31:59.041Z,53.40
2017-06-27T19:34:32.831Z,53.40
2017-06-27T19:37:07.349Z,53.70
2017-06-27T19:39:41.254Z,53.60
2017-06-27T19:42:15.796Z,54.10
2017-06-27T19:44:49.741Z,54.10
2017-06-27T19:47:24.409Z,54.30
2017-06-27T19:49:58.168Z,54.00
2017-06-27T19:52:32.833Z,53.60
2017-06-27T19:55:06.553Z,53.40
2017-06-27T19:57:41.168Z,53.40
2017-06-27T20:00:15.189Z,53.40
2017-06-27T20:02:49.897Z,54.30
2017-06-27T20:05:23.818Z,54.10
2017-06-27T20:07:57.588Z,54.20
2017-06-27T20:10:31.326Z,54.80
2017-06-27T20:13:05.257Z,54.30
2017-06-27T20:15:38.952Z,54.90
2017-06-27T20:18:12.636Z,54.40
2017-06-27T20:20:46.185Z,55.50
2017-06-27T20:23:19.997Z,54.20
2017-06-27T20:25:54.433Z,54.10
2017-06-27T20:28:28.468Z,54.10
2017-06-27T20:31:02.073Z,54.50
2017-06-27T20:33:36.761Z,54.50
2017-06-27T20:36:10.605Z,54.50
2017-06-27T20:38:45.073Z,54.40
2017-06-27T20:41:19.017Z,54.30
2017-06-27T20:43:53.793Z,54.60
2017-06-27T20:46:27.573Z,54.60
2017-06-27T20:49:02.244Z,54.30
2017-06-27T20:51:36.157Z,54.30
2017-06-27T20:54:10.760Z,55.50
2017-06-27T20:56:44.817Z,55.40
2017-06-27T20:59:19.523Z,54.50
2017-06-27T21:01:54.109Z,55.20
2017-06-27T21:04:28.867Z,54.80
2017-06-27T21:07:02.674Z,54.80
2017-06-27T21:09:37.285Z,55.10
2017-06-27T21:12:11.210Z,55.10
2017-06-27T21:14:45.744Z,55.00
2017-06-27T21:17:19.811Z,54.90
2017-06-27T21:19:53.693Z,55.70
2017-06-27T21:22:28.146Z,54.20
2017-06-27T21:25:02.495Z,54.10
2017-06-27T21:27:36.725Z,54.50
2017-06-27T21:30:10.561Z,53.70
2017-06-27T21:32:45.097Z,54.20
2017-06-27T21:35:28.828Z,54.20
2017-06-27T21:38:02.724Z,54.20
2017-06-27T21:40:37.201Z,53.90
2017-06-27T21:43:11.180Z,53.80
2017-06-27T21:45:46.661Z,54.30
2017-06-27T21:48:20.777Z,54.20
2017-06-27T21:50:55.421Z,54.50
2017-06-27T21:53:29.358Z,54.50
2017-06-27T21:56:04.021Z,55.60
2017-06-27T21:58:38.037Z,54.90
2017-06-27T22:01:11.853Z,54.00
2017-06-27T22:03:46.354Z,54.00
2017-06-27T22:06:21.405Z,54.00
2017-06-27T22:08:55.113Z,55.10
2017-06-27T22:11:29.070Z,55.30
2017-06-27T22:14:03.497Z,54.20
2017-06-27T22:16:38.385Z,54.30
2017-06-27T22:19:13.052Z,54.20
2017-06-27T22:21:47.202Z,54.10
2017-06-27T22:24:21.586Z,55.20
2017-06-27T22:26:56.544Z,54.60
2017-06-27T22:29:30.431Z,54.50
2017-06-27T22:32:04.957Z,54.90
2017-06-27T22:34:38.542Z,55.60
2017-06-27T22:37:13.295Z,54.70
2017-06-27T22:39:47.050Z,54.70
2017-06-27T22:42:20.781Z,55.60
2017-06-27T22:44:54.386Z,54.90
2017-06-27T22:47:28.111Z,55.10
2017-06-27T22:50:01.857Z,55.50
2017-06-27T22:52:35.709Z,55.50
2017-06-27T22:55:10.245Z,56.50
2017-06-27T22:57:43.974Z,55.60
2017-06-27T23:00:18.557Z,56.00
2017-06-27T23:02:53.466Z,56.20
2017-06-27T23:05:28.121Z,56.40
2017-06-27T23:08:02.027Z,56.40
2017-06-27T23:10:35.786Z,57.20
2017-06-27T23:13:09.446Z,56.70
2017-06-27T23:15:43.130Z,56.20
2017-06-27T23:18:16.940Z,56.00
2017-06-27T23:20:51.461Z,57.60
2017-06-27T23:23:25.396Z,57.30
2017-06-27T23:25:59.105Z,57.20
2017-06-27T23:28:32.983Z,57.10
2017-06-27T23:31:08.230Z,57.70
2017-06-27T23:33:42.383Z,57.70
2017-06-27T23:36:16.769Z,58.20
2017-06-27T23:38:50.656Z,58.10
2017-06-27T23:41:24.401Z,59.20
2017-06-27T23:43:58.100Z,58.20
2017-06-27T23:46:32.596Z,59.10
2017-06-27T23:49:06.793Z,59.00
2017-06-27T23:51:40.449Z,58.60
2017-06-27T23:54:15.009Z,58.90
2017-06-27T23:56:50.298Z,59.00
2017-06-27T23:59:24.261Z,59.00
